Jiansanjiang Airport


Codes: ZYJS/JSJ
Name: Jiansanjiang Airport
City: Jiansanjiang
Country: China
Elevation: 0 ft.

Photos at Jiansanjiang Airport


   Photos courtesy of SpottingLog. You can add your own sightings and photos by signing up for a free trial today.



No photos found.

Weather at Jiansanjiang Airport


Time (UTC)DescriptionTempratureWindCloud coverageVisibilityPressureHumidity
25-Jun-2024 12:00Broken Clouds14°C2 mph, NE67%10000m1009hPa82%
25-Jun-2024 15:00Scattered Clouds13°C2 mph, SW46%10000m1009hPa83%
25-Jun-2024 18:00Scattered Clouds12°C4 mph, S26%10000m1010hPa86%
25-Jun-2024 21:00Few Clouds13°C7 mph, SW19%10000m1011hPa86%
26-Jun-2024 00:00Few Clouds19°C9 mph, SW16%10000m1011hPa68%
26-Jun-2024 03:00Few Clouds23°C11 mph, SW12%10000m1010hPa58%
26-Jun-2024 06:00Light Rain24°C13 mph, SW40%10000m1008hPa60%
26-Jun-2024 09:00Light Rain22°C11 mph, SW97%10000m1008hPa75%
26-Jun-2024 12:00Light Rain18°C7 mph, SW100%10000m1008hPa93%
26-Jun-2024 15:00Overcast Clouds16°C7 mph, SW99%10000m1008hPa94%
26-Jun-2024 18:00Overcast Clouds15°C7 mph, SW94%10000m1008hPa94%
26-Jun-2024 21:00Scattered Clouds17°C7 mph, SW37%10000m1008hPa91%
27-Jun-2024 00:00Few Clouds21°C7 mph, SW22%10000m1007hPa76%
27-Jun-2024 03:00Scattered Clouds24°C7 mph, S32%10000m1006hPa66%
27-Jun-2024 06:00Broken Clouds23°C7 mph, S67%10000m1006hPa76%
27-Jun-2024 09:00Scattered Clouds24°C9 mph, S28%10000m1005hPa77%
27-Jun-2024 12:00Few Clouds19°C9 mph, S14%10000m1005hPa94%
27-Jun-2024 15:00Clear Sky18°C9 mph, S2%10000m1004hPa97%
27-Jun-2024 18:00Light Rain18°C9 mph, S16%10000m1003hPa97%
27-Jun-2024 21:00Light Rain19°C11 mph, S83%10000m1002hPa94%
28-Jun-2024 00:00Broken Clouds24°C13 mph, SW80%10000m1001hPa76%
28-Jun-2024 03:00Overcast Clouds28°C13 mph, SW94%10000m1001hPa61%
28-Jun-2024 06:00Overcast Clouds29°C16 mph, SW93%10000m1001hPa61%
28-Jun-2024 09:00Overcast Clouds27°C11 mph, SW85%10000m1000hPa73%
28-Jun-2024 12:00Scattered Clouds22°C9 mph, SW47%10000m1000hPa85%
28-Jun-2024 15:00Light Rain20°C11 mph, SW46%10000m1001hPa84%
28-Jun-2024 18:00Light Rain19°C7 mph, SW58%10000m1000hPa92%
28-Jun-2024 21:00Broken Clouds20°C9 mph, SW78%10000m1000hPa89%
29-Jun-2024 00:00Broken Clouds25°C9 mph, SW73%10000m1000hPa71%
29-Jun-2024 03:00Light Rain21°C16 mph, SW100%10000m1000hPa81%
29-Jun-2024 06:00Moderate Rain19°C13 mph, SW100%10000m1000hPa94%
29-Jun-2024 09:00Light Rain20°C11 mph, SW99%10000m1000hPa92%
29-Jun-2024 12:00Overcast Clouds18°C7 mph, SW89%10000m1000hPa97%
29-Jun-2024 15:00Broken Clouds17°C4 mph, SW71%10000m1000hPa96%
29-Jun-2024 18:00Broken Clouds17°C4 mph, SW81%10000m1000hPa96%
29-Jun-2024 21:00Light Rain18°C2 mph, W100%10000m999hPa98%
30-Jun-2024 00:00Moderate Rain20°C4 mph, NW100%10000m1000hPa92%
30-Jun-2024 03:00Light Rain23°C9 mph, NW99%10000m1002hPa52%
30-Jun-2024 06:00Overcast Clouds23°C7 mph, NW100%10000m1002hPa54%
30-Jun-2024 09:00Few Clouds24°C2 mph, W17%10000m1002hPa59%